createdAt,value
2018-01-28T00:00:37.853Z,4.9
2018-01-28T00:01:40.342Z,5
2018-01-28T00:02:43.129Z,4.9
2018-01-28T00:03:45.911Z,5
2018-01-28T00:04:48.412Z,4.9
2018-01-28T00:05:50.902Z,4.9
2018-01-28T00:06:53.400Z,4.9
2018-01-28T00:07:55.887Z,4.8
2018-01-28T00:08:58.385Z,4.9
2018-01-28T00:10:00.888Z,4.8
2018-01-28T00:11:03.388Z,4.8
2018-01-28T00:12:05.875Z,5
2018-01-28T00:13:08.375Z,5
2018-01-28T00:14:10.865Z,4.9
2018-01-28T00:15:13.357Z,4.9
2018-01-28T00:16:15.858Z,4.8
2018-01-28T00:17:18.340Z,4.9
2018-01-28T00:18:20.839Z,4.8
2018-01-28T00:19:23.341Z,4.8
2018-01-28T00:20:25.827Z,4.9
2018-01-28T00:21:28.324Z,4.9
2018-01-28T00:22:31.116Z,5
2018-01-28T00:23:33.920Z,4.9
2018-01-28T00:24:36.396Z,4.9
2018-01-28T00:25:38.885Z,4.9
2018-01-28T00:26:41.391Z,4.8
2018-01-28T00:27:43.881Z,4.8
2018-01-28T00:28:46.388Z,4.8
2018-01-28T00:29:49.172Z,4.9
2018-01-28T00:30:51.661Z,4.8
2018-01-28T00:31:54.171Z,4.8
2018-01-28T00:32:56.677Z,4.9
2018-01-28T00:33:59.160Z,5
2018-01-28T00:35:01.679Z,4.9
2018-01-28T00:36:04.464Z,4.8
2018-01-28T00:37:06.953Z,5
2018-01-28T00:38:09.763Z,4.8
2018-01-28T00:39:12.252Z,4.8
2018-01-28T00:40:14.744Z,4.9
2018-01-28T00:41:17.531Z,4.9
2018-01-28T00:42:20.023Z,4.9
2018-01-28T00:43:22.509Z,4.8
2018-01-28T00:44:25.008Z,4.9
2018-01-28T00:45:27.503Z,4.8
2018-01-28T00:46:29.996Z,4.9
2018-01-28T00:47:32.489Z,4.8
2018-01-28T00:48:34.983Z,4.9
2018-01-28T00:49:37.470Z,4.8
2018-01-28T00:50:39.978Z,4.9
2018-01-28T00:51:42.461Z,4.8
2018-01-28T00:52:45.537Z,4.8
2018-01-28T00:53:48.027Z,4.9
2018-01-28T00:54:50.813Z,4.8
2018-01-28T00:55:53.297Z,4.9
2018-01-28T00:56:55.781Z,4.9
2018-01-28T00:57:58.292Z,4.9
2018-01-28T00:59:01.053Z,5
2018-01-28T01:00:03.553Z,4.9
2018-01-28T01:01:06.050Z,4.9
2018-01-28T01:02:08.541Z,4.8
2018-01-28T01:03:11.038Z,4.8
2018-01-28T01:04:13.538Z,4.8
2018-01-28T01:05:16.019Z,4.8
2018-01-28T01:06:18.521Z,4.8
2018-01-28T01:07:21.008Z,4.9
2018-01-28T01:08:23.508Z,4.9
2018-01-28T01:09:26.005Z,4.9
2018-01-28T01:10:28.502Z,4.9
2018-01-28T01:11:30.987Z,4.9
2018-01-28T01:12:33.772Z,4.9
2018-01-28T01:13:36.263Z,4.8
2018-01-28T01:14:38.759Z,4.8
2018-01-28T01:15:41.243Z,5
2018-01-28T01:16:43.730Z,4.9
2018-01-28T01:17:46.221Z,4.8
2018-01-28T01:18:48.720Z,5
2018-01-28T01:19:51.214Z,4.9
2018-01-28T01:20:53.709Z,4.9
2018-01-28T01:21:56.193Z,4.8
2018-01-28T01:22:58.686Z,4.8
2018-01-28T01:24:01.193Z,4.8
2018-01-28T01:25:03.684Z,4.8
2018-01-28T01:26:06.184Z,4.9
2018-01-28T01:27:08.682Z,4.9
2018-01-28T01:28:11.173Z,4.9
2018-01-28T01:29:13.674Z,4.8
2018-01-28T01:30:16.170Z,4.8
2018-01-28T01:31:18.643Z,4.8
2018-01-28T01:32:21.141Z,4.8
2018-01-28T01:33:23.634Z,4.8
2018-01-28T01:34:26.120Z,4.9
2018-01-28T01:35:28.620Z,4.9
2018-01-28T01:36:31.402Z,4.8
2018-01-28T01:37:33.895Z,4.9
2018-01-28T01:38:36.961Z,4.8
2018-01-28T01:39:39.465Z,4.9
2018-01-28T01:40:41.941Z,4.8
2018-01-28T01:41:44.445Z,4.8
2018-01-28T01:42:47.225Z,4.9
2018-01-28T01:43:49.721Z,4.8
2018-01-28T01:44:52.220Z,4.8
2018-01-28T01:45:54.708Z,4.8
2018-01-28T01:46:57.197Z,4.8
2018-01-28T01:47:59.700Z,4.9
2018-01-28T01:49:02.469Z,4.9
2018-01-28T01:50:04.967Z,4.9
2018-01-28T01:51:07.454Z,4.9
2018-01-28T01:52:09.950Z,4.8
2018-01-28T01:53:12.439Z,4.8
2018-01-28T01:54:14.936Z,4.8
2018-01-28T01:55:17.430Z,4.8
2018-01-28T01:56:19.933Z,4.8
2018-01-28T01:57:22.717Z,4.8
2018-01-28T01:58:25.217Z,4.9
2018-01-28T01:59:27.720Z,4.8
2018-01-28T02:00:30.204Z,4.9
2018-01-28T02:01:32.695Z,4.8
2018-01-28T02:02:35.194Z,4.9
2018-01-28T02:03:37.673Z,4.8
2018-01-28T02:04:40.185Z,4.8
2018-01-28T02:05:42.658Z,4.8
2018-01-28T02:06:45.462Z,4.8
2018-01-28T02:07:47.951Z,4.9
2018-01-28T02:08:50.438Z,4.9
2018-01-28T02:09:52.932Z,4.8
2018-01-28T02:10:55.717Z,4.8
2018-01-28T02:11:58.208Z,4.9
2018-01-28T02:13:00.701Z,4.9
2018-01-28T02:14:03.468Z,4.8
2018-01-28T02:15:05.957Z,5
2018-01-28T02:16:08.460Z,4.8
2018-01-28T02:17:10.946Z,4.8
2018-01-28T02:18:13.485Z,4.8
2018-01-28T02:19:16.230Z,4.9
2018-01-28T02:20:19.026Z,5
2018-01-28T02:21:21.514Z,4.8
2018-01-28T02:22:24.017Z,4.8
2018-01-28T02:23:26.510Z,4.9
2018-01-28T02:24:29.007Z,4.9
2018-01-28T02:25:31.786Z,4.8
2018-01-28T02:26:34.282Z,4.9
2018-01-28T02:27:36.769Z,4.8
2018-01-28T02:28:39.265Z,4.8
2018-01-28T02:29:42.037Z,4.8
2018-01-28T02:30:44.538Z,4.8
2018-01-28T02:31:47.037Z,4.8
2018-01-28T02:32:49.820Z,4.9
2018-01-28T02:33:52.322Z,5
2018-01-28T02:34:54.817Z,5
2018-01-28T02:35:57.314Z,4.8
2018-01-28T02:36:59.804Z,4.8
2018-01-28T02:38:02.595Z,4.8
2018-01-28T02:39:05.099Z,4.8
2018-01-28T02:40:07.574Z,4.8
2018-01-28T02:41:10.072Z,4.8
2018-01-28T02:42:12.572Z,4.8
2018-01-28T02:43:15.067Z,4.9
2018-01-28T02:44:17.554Z,5
2018-01-28T02:45:20.049Z,4.9
2018-01-28T02:46:22.530Z,4.9
2018-01-28T02:47:25.036Z,4.8
2018-01-28T02:48:27.533Z,4.9
2018-01-28T02:49:30.015Z,4.8
2018-01-28T02:50:32.514Z,4.8
2018-01-28T02:51:35.010Z,4.8
2018-01-28T02:52:37.496Z,4.9
2018-01-28T02:53:39.992Z,4.9
2018-01-28T02:54:42.495Z,4.9
2018-01-28T02:55:44.985Z,4.9
2018-01-28T02:56:47.474Z,4.9
2018-01-28T02:57:49.966Z,4.8
2018-01-28T02:58:52.466Z,4.8
2018-01-28T02:59:55.246Z,4.7
2018-01-28T03:00:57.746Z,4.8
2018-01-28T03:02:00.507Z,4.8
2018-01-28T03:03:03.006Z,4.9
2018-01-28T03:04:05.515Z,4.9
2018-01-28T03:05:07.999Z,4.9
2018-01-28T03:06:10.493Z,4.9
2018-01-28T03:07:12.980Z,4.9
2018-01-28T03:08:15.477Z,4.9
2018-01-28T03:09:17.965Z,4.8
2018-01-28T03:10:20.466Z,4.8
2018-01-28T03:11:22.952Z,4.8
2018-01-28T03:12:25.454Z,4.8
2018-01-28T03:13:28.237Z,4.8
2018-01-28T03:14:30.730Z,4.9
2018-01-28T03:15:33.230Z,4.9
2018-01-28T03:16:35.722Z,4.8
2018-01-28T03:17:38.219Z,4.8
2018-01-28T03:18:40.717Z,4.9
2018-01-28T03:19:43.206Z,4.9
2018-01-28T03:20:45.689Z,4.8
2018-01-28T03:21:48.184Z,4.8
2018-01-28T03:22:50.970Z,4.8
2018-01-28T03:23:54.033Z,5
2018-01-28T03:24:56.526Z,4.9
2018-01-28T03:25:59.024Z,4.9
2018-01-28T03:27:01.524Z,5
2018-01-28T03:28:04.038Z,4.9
2018-01-28T03:29:06.525Z,4.9
2018-01-28T03:30:09.018Z,4.8
2018-01-28T03:31:11.807Z,4.8
2018-01-28T03:32:14.634Z,4.8
2018-01-28T03:33:17.134Z,4.8
2018-01-28T03:34:19.622Z,4.8
2018-01-28T03:35:22.387Z,4.8
2018-01-28T03:36:24.889Z,4.8
2018-01-28T03:37:27.386Z,4.9
2018-01-28T03:38:29.876Z,4.9
2018-01-28T03:39:32.372Z,4.9
2018-01-28T03:40:35.436Z,4.9
2018-01-28T03:41:37.930Z,4.9
2018-01-28T03:42:40.431Z,4.9
2018-01-28T03:43:42.912Z,4.9
2018-01-28T03:44:45.413Z,4.8
2018-01-28T03:45:48.193Z,4.8
2018-01-28T03:46:50.984Z,4.8
2018-01-28T03:47:53.479Z,4.9
2018-01-28T03:48:55.968Z,4.8
2018-01-28T03:49:58.468Z,4.9
2018-01-28T03:51:00.964Z,4.9
2018-01-28T03:52:03.452Z,4.8
2018-01-28T03:53:05.939Z,4.9
2018-01-28T03:54:08.448Z,4.9
2018-01-28T03:55:10.942Z,4.9
2018-01-28T03:56:13.423Z,4.8
2018-01-28T03:57:16.229Z,4.8
2018-01-28T03:58:18.727Z,4.8
2018-01-28T03:59:21.216Z,4.9
2018-01-28T04:00:23.715Z,4.9
2018-01-28T04:01:26.202Z,4.9
2018-01-28T04:02:28.728Z,4.9
2018-01-28T04:03:31.492Z,4.9
2018-01-28T04:04:34.268Z,4.8
2018-01-28T04:05:36.761Z,4.9
2018-01-28T04:06:39.263Z,4.8
2018-01-28T04:07:41.750Z,4.9
2018-01-28T04:08:44.261Z,4.8
2018-01-28T04:09:46.753Z,4.8
2018-01-28T04:10:49.235Z,4.8
2018-01-28T04:11:51.732Z,4.8
2018-01-28T04:12:54.226Z,5
2018-01-28T04:13:56.718Z,4.9
2018-01-28T04:14:59.216Z,4.9
2018-01-28T04:16:01.703Z,4.8
2018-01-28T04:17:04.202Z,4.8
2018-01-28T04:18:06.705Z,4.8
2018-01-28T04:19:09.779Z,4.8
2018-01-28T04:20:12.263Z,4.9
2018-01-28T04:21:14.759Z,4.8
2018-01-28T04:22:17.258Z,4.8
2018-01-28T04:23:19.750Z,4.9
2018-01-28T04:24:22.241Z,4.9
2018-01-28T04:25:24.736Z,4.9
2018-01-28T04:26:27.230Z,4.8
2018-01-28T04:27:29.736Z,4.8
2018-01-28T04:28:32.232Z,4.8
2018-01-28T04:29:34.995Z,4.8
2018-01-28T04:30:37.496Z,4.8
2018-01-28T04:31:39.995Z,4.8
2018-01-28T04:32:42.775Z,4.9
2018-01-28T04:33:45.277Z,4.9
2018-01-28T04:34:48.034Z,4.9
2018-01-28T04:35:50.818Z,4.9
2018-01-28T04:36:53.607Z,4.9
2018-01-28T04:37:56.094Z,5
2018-01-28T04:38:58.891Z,4.9
2018-01-28T04:40:01.670Z,4.9
2018-01-28T04:41:04.457Z,4.9
2018-01-28T04:42:07.251Z,4.9
2018-01-28T04:43:09.750Z,4.9
2018-01-28T04:44:12.234Z,4.9
2018-01-28T04:45:14.734Z,4.8
2018-01-28T04:46:17.229Z,4.8
2018-01-28T04:47:19.720Z,4.8
2018-01-28T04:48:22.206Z,4.9
2018-01-28T04:49:24.705Z,5
2018-01-28T04:50:27.203Z,4.9
2018-01-28T04:51:29.692Z,4.9
2018-01-28T04:52:32.197Z,4.9
2018-01-28T04:53:34.684Z,4.9
2018-01-28T04:54:37.182Z,4.8
2018-01-28T04:55:39.670Z,4.9
2018-01-28T04:56:42.165Z,4.8
2018-01-28T04:57:44.655Z,5
2018-01-28T04:58:47.152Z,5.1
2018-01-28T04:59:49.648Z,4.9
2018-01-28T05:00:52.143Z,4.9
2018-01-28T05:01:54.633Z,4.9
2018-01-28T05:02:57.142Z,4.8
2018-01-28T05:03:59.633Z,4.9
2018-01-28T05:05:02.125Z,4.8
2018-01-28T05:06:04.653Z,5
2018-01-28T05:07:07.106Z,5
2018-01-28T05:08:09.605Z,4.9
2018-01-28T05:09:12.103Z,5
2018-01-28T05:10:14.599Z,5.1
2018-01-28T05:11:17.097Z,4.9
2018-01-28T05:12:19.872Z,4.9
2018-01-28T05:13:22.378Z,4.9
2018-01-28T05:14:24.876Z,4.9
2018-01-28T05:15:27.367Z,4.9
2018-01-28T05:16:29.852Z,5
2018-01-28T05:17:32.351Z,4.9
2018-01-28T05:18:34.839Z,5
2018-01-28T05:19:37.332Z,4.9
2018-01-28T05:20:39.833Z,5
2018-01-28T05:21:42.337Z,4.9
2018-01-28T05:22:44.828Z,4.8
2018-01-28T05:23:47.327Z,4.9
2018-01-28T05:24:49.817Z,4.9
2018-01-28T05:25:52.312Z,5
2018-01-28T05:26:54.814Z,5.2
2018-01-28T05:27:57.300Z,4.9
2018-01-28T05:28:59.797Z,4.9
2018-01-28T05:30:02.291Z,4.9
2018-01-28T05:31:05.076Z,4.9
2018-01-28T05:32:07.574Z,4.9
2018-01-28T05:33:10.359Z,5
2018-01-28T05:34:12.854Z,4.9
2018-01-28T05:35:15.355Z,4.9
2018-01-28T05:36:17.849Z,5
2018-01-28T05:37:20.372Z,4.9
2018-01-28T05:38:22.851Z,4.9
2018-01-28T05:39:25.339Z,4.9
2018-01-28T05:40:27.847Z,5
2018-01-28T05:41:30.624Z,4.9
2018-01-28T05:42:33.113Z,4.9
2018-01-28T05:43:35.622Z,4.9
2018-01-28T05:44:38.115Z,5.1
2018-01-28T05:45:40.618Z,5
2018-01-28T05:46:43.112Z,5
2018-01-28T05:47:45.604Z,5.1
2018-01-28T05:48:48.097Z,5
2018-01-28T05:49:50.592Z,4.9
2018-01-28T05:50:53.378Z,5
2018-01-28T05:51:55.877Z,5
2018-01-28T05:52:58.362Z,4.9
2018-01-28T05:54:01.144Z,4.9
2018-01-28T05:55:03.636Z,5
2018-01-28T05:56:06.425Z,4.9
2018-01-28T05:57:08.920Z,4.9
2018-01-28T05:58:11.422Z,4.9
2018-01-28T05:59:13.913Z,5
2018-01-28T06:00:16.417Z,5
2018-01-28T06:01:18.913Z,5
2018-01-28T06:02:21.398Z,5
2018-01-28T06:03:24.178Z,5
2018-01-28T06:04:26.668Z,4.9
2018-01-28T06:05:29.162Z,4.9
2018-01-28T06:06:31.672Z,4.9
2018-01-28T06:07:34.154Z,5
2018-01-28T06:08:36.657Z,5
2018-01-28T06:09:39.726Z,5
2018-01-28T06:10:42.218Z,5.1
2018-01-28T06:11:44.721Z,5
2018-01-28T06:12:47.223Z,4.9
2018-01-28T06:13:49.708Z,5
2018-01-28T06:14:52.224Z,4.9
2018-01-28T06:15:54.713Z,4.9
2018-01-28T06:16:57.199Z,4.9
2018-01-28T06:17:59.692Z,4.9
2018-01-28T06:19:02.196Z,5
2018-01-28T06:20:04.700Z,5
2018-01-28T06:21:07.470Z,5
2018-01-28T06:22:09.966Z,5
2018-01-28T06:23:12.464Z,5
2018-01-28T06:24:14.952Z,4.9
2018-01-28T06:25:17.466Z,4.9
2018-01-28T06:26:19.949Z,4.9
2018-01-28T06:27:22.451Z,5
2018-01-28T06:28:25.238Z,4.9
2018-01-28T06:29:27.727Z,5.1
2018-01-28T06:30:30.534Z,5.1
2018-01-28T06:31:33.317Z,5
2018-01-28T06:32:35.803Z,5.1
2018-01-28T06:33:38.597Z,5
2018-01-28T06:34:41.095Z,5
2018-01-28T06:35:43.878Z,4.9
2018-01-28T06:36:46.376Z,5
2018-01-28T06:37:48.870Z,4.9
2018-01-28T06:38:51.351Z,5
2018-01-28T06:39:53.861Z,5.3
2018-01-28T06:40:56.343Z,5
2018-01-28T06:41:58.841Z,5
2018-01-28T06:43:01.337Z,5.2
2018-01-28T06:44:04.124Z,5
2018-01-28T06:45:06.906Z,5
2018-01-28T06:46:09.412Z,5.1
2018-01-28T06:47:11.907Z,5
2018-01-28T06:48:14.393Z,5.1
2018-01-28T06:49:16.886Z,4.9
2018-01-28T06:50:19.401Z,4.9
2018-01-28T06:51:21.890Z,4.9
2018-01-28T06:52:24.382Z,4.9
2018-01-28T06:53:26.883Z,5
2018-01-28T06:54:29.382Z,5
2018-01-28T06:55:32.167Z,5
2018-01-28T06:56:34.669Z,5
2018-01-28T06:57:37.151Z,5
2018-01-28T06:58:39.651Z,5
2018-01-28T06:59:42.160Z,5
2018-01-28T07:00:44.649Z,5.1
2018-01-28T07:01:47.145Z,4.9
2018-01-28T07:02:49.636Z,4.9
2018-01-28T07:03:52.136Z,5.1
2018-01-28T07:04:54.642Z,5
2018-01-28T07:05:57.127Z,4.9
2018-01-28T07:06:59.617Z,5.1
2018-01-28T07:08:02.112Z,4.9
2018-01-28T07:09:04.611Z,5
2018-01-28T07:10:07.108Z,5
2018-01-28T07:11:09.606Z,5
2018-01-28T07:12:12.372Z,5
2018-01-28T07:13:14.878Z,4.9
2018-01-28T07:14:17.498Z,5.1
2018-01-28T07:15:20.001Z,5
2018-01-28T07:16:22.495Z,5.1
2018-01-28T07:17:24.988Z,5.1
2018-01-28T07:18:27.487Z,5
2018-01-28T07:19:29.975Z,5
2018-01-28T07:20:32.473Z,5
2018-01-28T07:21:34.987Z,4.9
2018-01-28T07:22:37.492Z,5.1
2018-01-28T07:23:39.978Z,5
2018-01-28T07:24:42.796Z,5.1
2018-01-28T07:25:45.287Z,5
2018-01-28T07:26:47.786Z,5
2018-01-28T07:27:50.285Z,5.1
2018-01-28T07:28:52.773Z,5.1
2018-01-28T07:29:55.265Z,5
2018-01-28T07:30:57.754Z,4.9
2018-01-28T07:32:00.532Z,5
2018-01-28T07:33:03.045Z,5
2018-01-28T07:34:05.537Z,5.1
2018-01-28T07:35:08.326Z,5.1
2018-01-28T07:36:10.829Z,5.1
2018-01-28T07:37:13.323Z,5.1
2018-01-28T07:38:15.825Z,4.9
2018-01-28T07:39:18.332Z,5
2018-01-28T07:40:20.807Z,5
2018-01-28T07:41:23.312Z,5
2018-01-28T07:42:25.814Z,5
2018-01-28T07:43:28.313Z,5
2018-01-28T07:44:31.382Z,5.1
2018-01-28T07:45:33.879Z,5.1
2018-01-28T07:46:36.378Z,5
2018-01-28T07:47:39.146Z,5.2
2018-01-28T07:48:41.994Z,5.1
2018-01-28T07:49:44.794Z,5
2018-01-28T07:50:47.292Z,5
2018-01-28T07:51:49.791Z,5
2018-01-28T07:52:52.294Z,5.1
2018-01-28T07:53:54.783Z,4.9
2018-01-28T07:54:57.286Z,5
2018-01-28T07:55:59.774Z,5
2018-01-28T07:57:02.297Z,5.2
2018-01-28T07:58:04.756Z,5.1
2018-01-28T07:59:07.546Z,5.1
2018-01-28T08:00:10.042Z,5
2018-01-28T08:01:12.540Z,5
2018-01-28T08:02:15.039Z,5
2018-01-28T08:03:17.811Z,5.1
2018-01-28T08:04:20.321Z,5
2018-01-28T08:05:22.811Z,5
2018-01-28T08:06:25.306Z,5
2018-01-28T08:07:27.808Z,5.1
2018-01-28T08:08:30.611Z,5.2
2018-01-28T08:09:33.100Z,5.1
2018-01-28T08:10:35.891Z,5
2018-01-28T08:11:38.382Z,5.2
2018-01-28T08:12:40.879Z,5
2018-01-28T08:13:43.381Z,5
2018-01-28T08:14:45.878Z,5
2018-01-28T08:15:48.377Z,4.9
2018-01-28T08:16:51.051Z,5
2018-01-28T08:17:53.622Z,5.2
2018-01-28T08:18:56.164Z,5.2
2018-01-28T08:19:59.356Z,5.1
2018-01-28T08:21:01.871Z,5.1
2018-01-28T08:22:04.360Z,5.2
2018-01-28T08:23:06.860Z,5.2
2018-01-28T08:24:09.349Z,5
2018-01-28T08:25:11.840Z,5
2018-01-28T08:26:14.342Z,5
2018-01-28T08:27:17.133Z,5.1
2018-01-28T08:28:19.617Z,5.1
2018-01-28T08:29:22.118Z,5.1
2018-01-28T08:30:24.622Z,5.2
2018-01-28T08:31:27.403Z,5.1
2018-01-28T08:32:30.190Z,5.2
2018-01-28T08:33:32.686Z,5.1
2018-01-28T08:34:35.186Z,5
2018-01-28T08:35:37.685Z,5.1
2018-01-28T08:36:40.189Z,5.1
2018-01-28T08:37:42.959Z,5
2018-01-28T08:38:46.049Z,5
2018-01-28T08:39:48.530Z,4.9
2018-01-28T08:40:51.323Z,5.1
2018-01-28T08:41:53.816Z,5.1
2018-01-28T08:42:56.318Z,5
2018-01-28T08:43:58.812Z,5.1
2018-01-28T08:45:01.316Z,5.1
2018-01-28T08:46:03.813Z,5
2018-01-28T08:47:06.931Z,5.1
2018-01-28T08:48:09.436Z,5.1
2018-01-28T08:49:11.924Z,5.1
2018-01-28T08:50:14.421Z,5.1
2018-01-28T08:51:16.913Z,5
2018-01-28T08:52:19.426Z,5
2018-01-28T08:53:21.921Z,5
2018-01-28T08:54:24.408Z,5.1
2018-01-28T08:55:26.909Z,5.2
2018-01-28T08:56:29.405Z,5.2
2018-01-28T08:57:31.904Z,5
2018-01-28T08:58:34.404Z,5.1
2018-01-28T08:59:36.899Z,5
2018-01-28T09:00:39.399Z,5.1
2018-01-28T09:01:42.187Z,5
2018-01-28T09:02:44.969Z,5.1
2018-01-28T09:03:47.466Z,5.3
2018-01-28T09:04:49.960Z,5
2018-01-28T09:05:52.450Z,5.2
2018-01-28T09:06:54.950Z,5.2
2018-01-28T09:07:57.448Z,5.1
2018-01-28T09:08:59.948Z,5
2018-01-28T09:10:02.450Z,5.2
2018-01-28T09:11:04.939Z,5
2018-01-28T09:12:07.442Z,5.1
2018-01-28T09:13:10.267Z,5.3
2018-01-28T09:14:12.757Z,5.1
2018-01-28T09:15:15.857Z,5
2018-01-28T09:16:18.635Z,5.2
2018-01-28T09:17:21.134Z,5.1
2018-01-28T09:18:23.645Z,5.1
2018-01-28T09:19:26.140Z,5.2
2018-01-28T09:20:28.644Z,5.1
2018-01-28T09:21:31.132Z,5
2018-01-28T09:22:33.921Z,5
2018-01-28T09:23:36.410Z,5.1
2018-01-28T09:24:38.911Z,5
2018-01-28T09:25:41.393Z,5.1
2018-01-28T09:26:43.901Z,5.2
2018-01-28T09:27:46.408Z,5.1
2018-01-28T09:28:48.900Z,5.1
2018-01-28T09:29:51.394Z,5
2018-01-28T09:30:53.887Z,5
2018-01-28T09:31:56.969Z,5
2018-01-28T09:32:59.468Z,5
2018-01-28T09:34:02.270Z,5
2018-01-28T09:35:04.762Z,5.1
2018-01-28T09:36:07.537Z,5.1
2018-01-28T09:37:10.058Z,5.1
2018-01-28T09:38:12.541Z,5
2018-01-28T09:39:15.046Z,5.1
2018-01-28T09:40:17.542Z,5.1
2018-01-28T09:41:20.042Z,5.1
2018-01-28T09:42:22.827Z,5
2018-01-28T09:43:25.334Z,5.1
2018-01-28T09:44:27.821Z,5
2018-01-28T09:45:30.611Z,5
2018-01-28T09:46:33.108Z,5
2018-01-28T09:47:35.913Z,5.1
2018-01-28T09:48:38.393Z,5.1
2018-01-28T09:49:41.182Z,5
2018-01-28T09:50:43.959Z,5.2
2018-01-28T09:51:46.464Z,5.1
2018-01-28T09:52:49.026Z,5.2
2018-01-28T09:53:51.457Z,5.2
2018-01-28T09:54:54.247Z,5
2018-01-28T09:55:56.737Z,5.1
2018-01-28T09:56:59.550Z,5
2018-01-28T09:58:02.051Z,5
2018-01-28T09:59:04.551Z,5
2018-01-28T10:00:07.608Z,5
2018-01-28T10:01:10.122Z,5.1
2018-01-28T10:02:12.618Z,5.3
2018-01-28T10:03:15.406Z,5
2018-01-28T10:04:17.915Z,5.1
2018-01-28T10:05:20.411Z,5.2
2018-01-28T10:06:23.207Z,5.2
2018-01-28T10:07:25.708Z,5
2018-01-28T10:08:28.198Z,5.1
2018-01-28T10:09:30.697Z,5.1
2018-01-28T10:10:33.202Z,5.2
2018-01-28T10:11:35.692Z,5.1
2018-01-28T10:12:38.181Z,5
2018-01-28T10:13:40.682Z,5.2
2018-01-28T10:14:43.178Z,5.1
2018-01-28T10:15:45.965Z,5.1
2018-01-28T10:16:48.451Z,5.1
2018-01-28T10:17:50.954Z,5.1
2018-01-28T10:18:53.741Z,5.1
2018-01-28T10:19:56.236Z,5.1
2018-01-28T10:20:58.739Z,5
2018-01-28T10:22:01.242Z,5.2
2018-01-28T10:23:03.734Z,5
2018-01-28T10:24:06.247Z,5.1
2018-01-28T10:25:08.733Z,5.1
2018-01-28T10:26:11.238Z,5.1
2018-01-28T10:27:13.741Z,5.1
2018-01-28T10:28:16.235Z,5.2
2018-01-28T10:29:18.737Z,5.1
2018-01-28T10:30:21.518Z,5.1
2018-01-28T10:31:24.013Z,5.1
2018-01-28T10:32:26.513Z,5.1
2018-01-28T10:33:29.014Z,5.1
2018-01-28T10:34:31.791Z,5.1
2018-01-28T10:35:34.285Z,5.1
2018-01-28T10:36:36.801Z,5
2018-01-28T10:37:39.628Z,5
2018-01-28T10:38:42.131Z,5.3
2018-01-28T10:39:44.626Z,5
2018-01-28T10:40:47.119Z,5
2018-01-28T10:41:49.623Z,5.2
2018-01-28T10:42:52.407Z,5.1
2018-01-28T10:43:54.896Z,5.1
2018-01-28T10:44:57.402Z,5.2
2018-01-28T10:46:00.197Z,5.1
2018-01-28T10:47:02.995Z,5.1
2018-01-28T10:48:06.385Z,5.1
2018-01-28T10:49:08.910Z,5.1
2018-01-28T10:50:11.408Z,5.2
2018-01-28T10:51:14.177Z,5.1
2018-01-28T10:52:16.681Z,5.3
2018-01-28T10:53:19.185Z,5.1
2018-01-28T10:54:21.964Z,5.1
2018-01-28T10:55:24.461Z,5.1
2018-01-28T10:56:26.953Z,5
2018-01-28T10:57:29.447Z,5.1
2018-01-28T10:58:31.968Z,5.2
2018-01-28T10:59:34.446Z,5.1
2018-01-28T11:00:36.961Z,5.1
2018-01-28T11:01:39.744Z,5.1
2018-01-28T11:02:42.247Z,5.1
2018-01-28T11:03:45.327Z,5
2018-01-28T11:04:47.829Z,5.1
2018-01-28T11:05:50.327Z,5.1
2018-01-28T11:06:52.831Z,5.1
2018-01-28T11:07:55.317Z,5.1
2018-01-28T11:08:58.099Z,5.1
2018-01-28T11:10:00.598Z,5.1
2018-01-28T11:11:03.097Z,5.1
2018-01-28T11:12:05.590Z,5.1
2018-01-28T11:13:08.091Z,5.1
2018-01-28T11:14:10.588Z,5.1
2018-01-28T11:15:13.093Z,5.1
2018-01-28T11:16:15.587Z,5.2
2018-01-28T11:17:18.092Z,5.1
2018-01-28T11:18:20.595Z,5.1
2018-01-28T11:19:23.084Z,5.2
2018-01-28T11:20:25.874Z,5
2018-01-28T11:21:28.369Z,5.1
2018-01-28T11:22:30.870Z,5.1
2018-01-28T11:23:33.370Z,5.1
2018-01-28T11:24:36.139Z,5.1
2018-01-28T11:25:38.633Z,5.3
2018-01-28T11:26:41.144Z,5.1
2018-01-28T11:27:43.636Z,5.2
2018-01-28T11:28:46.710Z,5.2
2018-01-28T11:29:49.510Z,5.2
2018-01-28T11:30:51.997Z,5.2
2018-01-28T11:31:54.517Z,5.2
2018-01-28T11:32:57.010Z,5.2
2018-01-28T11:33:59.501Z,5.2
2018-01-28T11:35:02.005Z,5.1
2018-01-28T11:36:04.498Z,5.2
2018-01-28T11:37:07.001Z,5.1
2018-01-28T11:38:09.852Z,5.2
2018-01-28T11:39:12.330Z,5.2
2018-01-28T11:40:14.825Z,5.1
2018-01-28T11:41:17.337Z,5.2
2018-01-28T11:42:19.829Z,5.3
2018-01-28T11:43:22.325Z,5.2
2018-01-28T11:44:25.116Z,5.1
2018-01-28T11:45:27.622Z,5.4
2018-01-28T11:46:30.117Z,5.3
2018-01-28T11:47:32.620Z,5.3
2018-01-28T11:48:35.133Z,5.3
2018-01-28T11:49:37.629Z,5.2
2018-01-28T11:50:40.470Z,5.3
2018-01-28T11:51:42.980Z,5.3
2018-01-28T11:52:45.772Z,5.1
2018-01-28T11:53:48.269Z,5.3
2018-01-28T11:54:50.772Z,5.3
2018-01-28T11:55:53.270Z,5.2
2018-01-28T11:56:56.061Z,5.1
2018-01-28T11:57:58.577Z,5.4
2018-01-28T11:59:01.068Z,5.4
2018-01-28T12:00:03.560Z,5.2
2018-01-28T12:01:06.063Z,5.2
2018-01-28T12:02:08.847Z,5.2
2018-01-28T12:03:11.355Z,5.2
2018-01-28T12:04:13.862Z,5.2
2018-01-28T12:05:16.343Z,5.2
2018-01-28T12:06:18.861Z,5.2
2018-01-28T12:07:21.647Z,5.2
2018-01-28T12:08:24.429Z,5.4
2018-01-28T12:09:26.937Z,5.2
2018-01-28T12:10:29.733Z,5.3
2018-01-28T12:11:32.510Z,5.2
2018-01-28T12:12:35.021Z,5.2
2018-01-28T12:13:37.526Z,5.2
2018-01-28T12:14:40.011Z,5.2
2018-01-28T12:15:42.809Z,5.1
2018-01-28T12:16:45.325Z,5.1
2018-01-28T12:17:47.819Z,5.3
2018-01-28T12:18:50.318Z,5.2
2018-01-28T12:19:52.827Z,5.3
2018-01-28T12:20:55.321Z,5.2
2018-01-28T12:21:57.829Z,5.1
2018-01-28T12:23:00.332Z,5.2
2018-01-28T12:24:02.811Z,5.2
2018-01-28T12:25:05.322Z,5.1
2018-01-28T12:26:07.815Z,5.1
2018-01-28T12:27:10.311Z,5.1
2018-01-28T12:28:12.812Z,5.2
2018-01-28T12:29:15.300Z,5.2
2018-01-28T12:30:17.806Z,5.2
2018-01-28T12:31:20.319Z,5.2
2018-01-28T12:32:22.813Z,5.1
2018-01-28T12:33:25.320Z,5.1
2018-01-28T12:34:27.815Z,5.1
2018-01-28T12:35:30.310Z,5.2
2018-01-28T12:36:32.816Z,5.2
2018-01-28T12:37:35.313Z,5.2
2018-01-28T12:38:37.802Z,5.2
2018-01-28T12:39:40.314Z,5.2
2018-01-28T12:40:42.809Z,5.1
2018-01-28T12:41:45.315Z,5.1
2018-01-28T12:42:47.810Z,5.1
2018-01-28T12:43:50.313Z,5.1
2018-01-28T12:44:52.811Z,5.2
2018-01-28T12:45:55.309Z,5.2
2018-01-28T12:46:57.804Z,5.2
2018-01-28T12:48:00.314Z,5.3
2018-01-28T12:49:03.099Z,5.2
2018-01-28T12:50:05.604Z,5.2
2018-01-28T12:51:08.403Z,5.1
2018-01-28T12:52:11.203Z,5.2
2018-01-28T12:53:13.693Z,5.2
2018-01-28T12:54:16.198Z,5.1
2018-01-28T12:55:18.981Z,5.2
2018-01-28T12:56:21.482Z,5.1
2018-01-28T12:57:24.274Z,5.1
2018-01-28T12:58:26.773Z,5.2
2018-01-28T12:59:29.561Z,5.3
2018-01-28T13:00:32.056Z,5
2018-01-28T13:01:34.552Z,5.1
2018-01-28T13:02:37.057Z,5.1
2018-01-28T13:03:39.546Z,5.2
2018-01-28T13:04:42.042Z,5.3
2018-01-28T13:05:44.546Z,5.2
2018-01-28T13:06:47.042Z,5.3
2018-01-28T13:07:49.546Z,5.1
2018-01-28T13:08:52.351Z,5.2
2018-01-28T13:09:55.133Z,5
2018-01-28T13:10:57.651Z,5.2
2018-01-28T13:12:00.727Z,5.1
2018-01-28T13:13:03.216Z,5.1
2018-01-28T13:14:05.726Z,5.1
2018-01-28T13:15:08.825Z,5.1
2018-01-28T13:16:11.617Z,5.1
2018-01-28T13:17:14.114Z,5.1
2018-01-28T13:18:16.921Z,5.1
2018-01-28T13:19:19.422Z,5.1
2018-01-28T13:20:21.928Z,5.2
2018-01-28T13:21:24.423Z,5.3
2018-01-28T13:22:26.920Z,5.1
2018-01-28T13:23:29.419Z,5.1
2018-01-28T13:24:31.916Z,5.2
2018-01-28T13:25:34.412Z,5
2018-01-28T13:26:36.917Z,5
2018-01-28T13:27:39.415Z,5.2
2018-01-28T13:28:41.921Z,5.1
2018-01-28T13:29:44.408Z,5.3
2018-01-28T13:30:46.914Z,5.2
2018-01-28T13:31:49.406Z,5.3
2018-01-28T13:32:51.910Z,5.2
2018-01-28T13:33:54.410Z,5.1
2018-01-28T13:34:57.490Z,5.2
2018-01-28T13:35:59.974Z,5.1
2018-01-28T13:37:02.488Z,5.1
2018-01-28T13:38:04.991Z,5.1
2018-01-28T13:39:07.486Z,5.2
2018-01-28T13:40:09.988Z,5.1
2018-01-28T13:41:12.486Z,5.3
2018-01-28T13:42:14.976Z,5
2018-01-28T13:43:17.492Z,5.1
2018-01-28T13:44:19.984Z,5.1
2018-01-28T13:45:22.789Z,5.1
2018-01-28T13:46:25.294Z,5.1
2018-01-28T13:47:27.772Z,5.3
2018-01-28T13:48:30.275Z,5.1
2018-01-28T13:49:32.782Z,5.2
2018-01-28T13:50:35.287Z,5.1
2018-01-28T13:51:37.794Z,5.1
2018-01-28T13:52:40.577Z,5.1
2018-01-28T13:53:43.070Z,5.1
2018-01-28T13:54:45.874Z,5.1
2018-01-28T13:55:48.665Z,5
2018-01-28T13:56:51.153Z,5.1
2018-01-28T13:57:53.662Z,5.2
2018-01-28T13:58:56.157Z,5.2
2018-01-28T13:59:58.673Z,5.2
2018-01-28T14:01:01.468Z,5.1
2018-01-28T14:02:04.260Z,5.3
2018-01-28T14:03:06.761Z,5.2
2018-01-28T14:04:09.267Z,5.2
2018-01-28T14:05:11.765Z,5.2
2018-01-28T14:06:14.256Z,5.1
2018-01-28T14:07:16.744Z,5.1
2018-01-28T14:08:19.236Z,5.1
2018-01-28T14:09:21.749Z,5.3
2018-01-28T14:10:24.248Z,5.2
2018-01-28T14:11:26.727Z,5.2
2018-01-28T14:12:29.223Z,5.1
2018-01-28T14:13:31.735Z,5.1
2018-01-28T14:14:34.229Z,5.3
2018-01-28T14:15:36.729Z,5.2
2018-01-28T14:16:39.222Z,5.2
2018-01-28T14:17:41.719Z,5.2
2018-01-28T14:18:44.497Z,5.2
2018-01-28T14:19:47.004Z,5.1
2018-01-28T14:20:49.493Z,5.3
2018-01-28T14:21:51.993Z,5.1
2018-01-28T14:22:54.787Z,5.1
2018-01-28T14:23:57.284Z,5.1
2018-01-28T14:24:59.792Z,5.1
2018-01-28T14:26:02.580Z,5.1
2018-01-28T14:27:05.075Z,5.2
2018-01-28T14:28:07.589Z,5.3
2018-01-28T14:29:10.083Z,5.3
2018-01-28T14:30:12.579Z,5.2
2018-01-28T14:31:15.081Z,5
2018-01-28T14:32:17.587Z,5
2018-01-28T14:33:20.080Z,5